Terminal Aerodrome Forecast
Issued by NWS Cleveland, OH

Home | Current Version | Previous Version | Text Only | Print | Product List | Glossary On
Versions: 1 2 3 4 5 6 7 8 9 10 11 12 13 14 15 16 17 18
756
FTUS41 KCLE 260406 AAA
TAFYNG
TAF AMD
KYNG 260406Z 2604/2624 27012G20KT P6SM -SHSN SCT025 OVC040
     FM260800 27012KT P6SM OVC025
     FM261900 24010KT P6SM SCT025=

USA.gov is the U.S. government's official web portal to all federal, state and local government web resources and services.